Time;durP1;ratioP1;P1;durP2;ratioP2;P2;SDS_P1;SDS_P2;PMS_P1;PMS_P2;Temp;Humidity;BMP_temperature;BMP_pressure;BME280_temperature;BME280_humidity;BME280_pressure;Samples;Min_cycle;Max_cycle;Signal;HPM_P1;HPM_P2
2021/07/07 00:02:05;;;;;;;;;;;;;;;;;;5013579;28;19914;-79
2021/07/07 00:04:30;;;;;;;;;;;;;;;;;;5015318;28;19971;-79
2021/07/07 00:06:55;;;;;;;;;;;;;;;;;;5013824;28;19913;-79
2021/07/07 00:09:21;;;;;;;;;;;;;;;;;;4997053;28;20364;-79
2021/07/07 00:11:46;;;;;;;;;;;;;;;;;;5013178;28;19917;-79
2021/07/07 00:14:11;;;;;;;;;;;;;;;;;;5013181;28;19924;-79
2021/07/07 00:16:36;;;;;;;;;;;;;;;;;;5013544;28;19959;-79
2021/07/07 00:21:36;;;;;;;;;;;;;;;;;;5004383;23;19926;-78
2021/07/07 00:24:02;;;;;;;;;;;;;;;;;;4972103;28;19918;-78
2021/07/07 00:26:27;;;;;;;;;;;;;;;;;;4972500;28;19925;-78
2021/07/07 00:28:52;;;;;;;;;;;;;;;;;;4972111;28;19965;-79
2021/07/07 00:31:17;;;;;;;;;;;;;;;;;;4955721;28;20377;-78
2021/07/07 00:33:43;;;;;;;;;;;;;;;;;;4973346;28;19918;-77
2021/07/07 00:36:08;;;;;;;;;;;;;;;;;;4972034;28;19914;-77
2021/07/07 00:38:33;;;;;;;;;;;;;;;;;;4972311;28;19915;-78
2021/07/07 00:40:58;;;;;;;;;;;;;;;;;;4968315;28;19921;-77
2021/07/07 00:43:23;;;;;;;;;;;;;;;;;;4974829;28;19914;-77
2021/07/07 00:45:48;;;;;;;;;;;;;;;;;;4960497;28;19913;-77
2021/07/07 00:48:14;;;;;;;;;;;;;;;;;;4977002;28;19918;-77
2021/07/07 00:50:41;;;;;;;;;;;;;;;;;;4977178;28;19920;-77
2021/07/07 00:53:06;;;;;;;;;;;;;;;;;;4976823;28;20316;-77
2021/07/07 00:55:31;;;;;;;;;;;;;;;;;;4960669;28;19914;-77
2021/07/07 00:57:57;;;;;;;;;;;;;;;;;;4960772;28;19965;-77
2021/07/07 01:00:23;;;;;;;;;;;;;;;;;;4994713;28;20357;-77
2021/07/07 01:02:49;;;;;;;;;;;;;;;;;;4961100;28;19984;-77
2021/07/07 01:05:14;;;;;;;;;;;;;;;;;;4994339;28;19961;-77
2021/07/07 01:07:40;;;;;;;;;;;;;;;;;;4977053;28;19956;-77
2021/07/07 01:10:05;;;;;;;;;;;;;;;;;;4976829;28;19972;-77
2021/07/07 01:12:31;;;;;;;;;;;;;;;;;;4961851;28;19920;-77
2021/07/07 01:14:56;;;;;;;;;;;;;;;;;;4976865;28;19913;-77
2021/07/07 01:17:23;;;;;;;;;;;;;;;;;;4976752;28;20393;-77
2021/07/07 01:19:49;;;;;;;;;;;;;;;;;;4976960;28;19918;-77
2021/07/07 01:22:14;;;;;;;;;;;;;;;;;;4976697;28;19918;-77
2021/07/07 01:24:39;;;;;;;;;;;;;;;;;;4979525;28;20330;-77
2021/07/07 01:27:04;;;;;;;;;;;;;;;;;;4964330;28;19968;-77
2021/07/07 01:29:29;;;;;;;;;;;;;;;;;;4980395;28;19914;-77
2021/07/07 01:31:55;;;;;;;;;;;;;;;;;;4979501;28;20047;-77
2021/07/07 01:34:20;;;;;;;;;;;;;;;;;;4964439;28;20432;-77
2021/07/07 01:36:45;;;;;;;;;;;;;;;;;;4972063;28;20012;-77
2021/07/07 01:39:10;;;;;;;;;;;;;;;;;;4980273;28;19914;-77
2021/07/07 01:41:35;;;;;;;;;;;;;;;;;;4980358;28;20301;-77
2021/07/07 01:44:01;;;;;;;;;;;;;;;;;;4980431;28;19914;-77
2021/07/07 01:46:26;;;;;;;;;;;;;;;;;;4970727;28;20301;-77
2021/07/07 01:48:52;;;;;;;;;;;;;;;;;;4960731;28;19961;-77
2021/07/07 01:51:17;;;;;;;;;;;;;;;;;;4960743;28;19914;-77
2021/07/07 01:53:42;;;;;;;;;;;;;;;;;;4944687;28;19996;-77
2021/07/07 01:56:07;;;;;;;;;;;;;;;;;;4944520;28;19937;-77
2021/07/07 01:58:33;;;;;;;;;;;;;;;;;;4944684;28;19914;-77
2021/07/07 02:00:58;;;;;;;;;;;;;;;;;;4960558;28;19949;-77
2021/07/07 02:03:23;;;;;;;;;;;;;;;;;;4944407;28;19968;-77
2021/07/07 02:05:48;;;;;;;;;;;;;;;;;;4960538;28;19914;-77
2021/07/07 02:08:13;;;;;;;;;;;;;;;;;;4944396;28;20393;-77
2021/07/07 02:10:39;;;;;;;;;;;;;;;;;;4960399;28;19922;-77
2021/07/07 02:13:04;;;;;;;;;;;;;;;;;;4960448;28;20365;-77
2021/07/07 02:15:30;;;;;;;;;;;;;;;;;;4960477;28;19921;-77
2021/07/07 02:17:56;;;;;;;;;;;;;;;;;;4944192;28;19914;-77
2021/07/07 02:20:22;;;;;;;;;;;;;;;;;;4944257;28;19941;-77
2021/07/07 02:22:47;;;;;;;;;;;;;;;;;;4959992;28;20370;-77
2021/07/07 02:25:13;;;;;;;;;;;;;;;;;;4960110;28;19997;-77
2021/07/07 02:27:39;;;;;;;;;;;;;;;;;;4960079;28;19918;-77
2021/07/07 02:30:05;;;;;;;;;;;;;;;;;;4977618;28;19924;-77
2021/07/07 02:32:30;;;;;;;;;;;;;;;;;;5004015;23;19932;-85
2021/07/07 02:34:56;;;;;;;;;;;;;;;;;;5031203;28;19918;-85
2021/07/07 02:37:21;;;;;;;;;;;;;;;;;;5035728;28;19940;-85
2021/07/07 02:39:46;;;;;;;;;;;;;;;;;;5024833;28;19914;-85
2021/07/07 02:42:12;;;;;;;;;;;;;;;;;;5006558;28;19914;-85
2021/07/07 02:44:37;;;;;;;;;;;;;;;;;;5008134;28;19925;-85
2021/07/07 02:47:02;;;;;;;;;;;;;;;;;;5008227;28;19936;-85
2021/07/07 02:49:27;;;;;;;;;;;;;;;;;;5022184;28;20296;-85
2021/07/07 02:51:52;;;;;;;;;;;;;;;;;;5025066;28;19914;-84
2021/07/07 02:54:18;;;;;;;;;;;;;;;;;;5027584;28;19914;-84
2021/07/07 02:56:43;;;;;;;;;;;;;;;;;;5013935;28;19944;-85
2021/07/07 02:59:08;;;;;;;;;;;;;;;;;;5030037;28;19914;-84
2021/07/07 03:01:33;;;;;;;;;;;;;;;;;;5029689;28;19920;-85
2021/07/07 03:03:58;;;;;;;;;;;;;;;;;;5029320;28;19914;-84
2021/07/07 03:06:24;;;;;;;;;;;;;;;;;;5029856;28;19984;-84
2021/07/07 03:08:49;;;;;;;;;;;;;;;;;;5030109;28;19920;-85
2021/07/07 03:11:14;;;;;;;;;;;;;;;;;;5029936;28;19913;-85
2021/07/07 03:13:39;;;;;;;;;;;;;;;;;;5030288;28;19921;-85
2021/07/07 03:16:05;;;;;;;;;;;;;;;;;;5030404;28;19913;-85
2021/07/07 03:18:30;;;;;;;;;;;;;;;;;;5031246;28;19952;-85
2021/07/07 03:20:55;;;;;;;;;;;;;;;;;;5030572;28;19914;-85
2021/07/07 03:23:21;;;;;;;;;;;;;;;;;;5030289;28;19921;-85
2021/07/07 03:25:47;;;;;;;;;;;;;;;;;;5029518;28;19918;-84
2021/07/07 03:28:12;;;;;;;;;;;;;;;;;;5028483;28;19920;-85
2021/07/07 03:30:37;;;;;;;;;;;;;;;;;;5044012;28;19913;-84
2021/07/07 03:33:03;;;;;;;;;;;;;;;;;;5027296;28;19921;-84
2021/07/07 03:35:28;;;;;;;;;;;;;;;;;;5027786;28;19914;-84
2021/07/07 03:37:53;;;;;;;;;;;;;;;;;;5027362;28;19917;-84
2021/07/07 03:40:18;;;;;;;;;;;;;;;;;;5027307;28;19913;-84
2021/07/07 03:42:44;;;;;;;;;;;;;;;;;;5027383;28;20368;-84
2021/07/07 03:45:10;;;;;;;;;;;;;;;;;;5027580;28;19917;-85
2021/07/07 03:47:35;;;;;;;;;;;;;;;;;;5015789;28;20031;-85
2021/07/07 03:50:00;;;;;;;;;;;;;;;;;;5024092;28;19924;-85
2021/07/07 03:52:25;;;;;;;;;;;;;;;;;;5010670;28;19918;-85
2021/07/07 03:54:51;;;;;;;;;;;;;;;;;;5028581;28;19917;-85
2021/07/07 03:57:16;;;;;;;;;;;;;;;;;;5029719;28;19914;-85
2021/07/07 03:59:43;;;;;;;;;;;;;;;;;;5022890;28;19945;-84
2021/07/07 04:02:08;;;;;;;;;;;;;;;;;;5021939;28;20359;-85
2021/07/07 04:04:35;;;;;;;;;;;;;;;;;;5023071;28;19956;-84
2021/07/07 04:07:01;;;;;;;;;;;;;;;;;;5024501;28;19972;-84
2021/07/07 04:09:29;;;;;;;;;;;;;;;;;;5025115;28;19925;-84
2021/07/07 04:11:55;;;;;;;;;;;;;;;;;;5023962;28;19918;-84
2021/07/07 04:14:23;;;;;;;;;;;;;;;;;;5024624;28;20041;-84
2021/07/07 04:16:48;;;;;;;;;;;;;;;;;;5023527;28;19918;-84
2021/07/07 04:19:13;;;;;;;;;;;;;;;;;;5022802;28;19948;-84
2021/07/07 04:21:38;;;;;;;;;;;;;;;;;;5025715;28;19949;-85
2021/07/07 04:24:04;;;;;;;;;;;;;;;;;;5023445;28;20005;-85
2021/07/07 04:26:29;;;;;;;;;;;;;;;;;;5024812;28;20004;-85
2021/07/07 04:28:54;;;;;;;;;;;;;;;;;;5024734;28;19918;-84
2021/07/07 04:31:19;;;;;;;;;;;;;;;;;;5026511;28;19939;-84
2021/07/07 04:33:45;;;;;;;;;;;;;;;;;;5026280;28;19917;-84
2021/07/07 04:36:10;;;;;;;;;;;;;;;;;;5027824;28;19921;-84
2021/07/07 04:38:35;;;;;;;;;;;;;;;;;;5026953;28;19914;-84
2021/07/07 04:41:00;;;;;;;;;;;;;;;;;;5025185;28;19968;-85
2021/07/07 04:43:25;;;;;;;;;;;;;;;;;;5025403;28;19913;-85
2021/07/07 04:45:51;;;;;;;;;;;;;;;;;;5025806;28;19918;-85
2021/07/07 04:48:16;;;;;;;;;;;;;;;;;;5009242;28;19921;-85
2021/07/07 04:50:41;;;;;;;;;;;;;;;;;;5025044;28;20316;-85
2021/07/07 04:53:06;;;;;;;;;;;;;;;;;;5027303;28;19913;-84
2021/07/07 04:55:31;;;;;;;;;;;;;;;;;;5025067;28;19913;-84
2021/07/07 04:57:58;;;;;;;;;;;;;;;;;;5024429;28;19913;-84
2021/07/07 05:00:23;;;;;;;;;;;;;;;;;;5025951;28;19913;-85
2021/07/07 05:02:49;;;;;;;;;;;;;;;;;;5017786;28;19932;-85
2021/07/07 05:05:15;;;;;;;;;;;;;;;;;;5035939;28;19909;-85
2021/07/07 05:07:40;;;;;;;;;;;;;;;;;;5012591;28;19941;-84
2021/07/07 05:10:06;;;;;;;;;;;;;;;;;;5025092;28;19914;-85
2021/07/07 05:12:31;;;;;;;;;;;;;;;;;;5010879;28;19921;-85
2021/07/07 05:14:57;;;;;;;;;;;;;;;;;;5026334;28;19974;-85
2021/07/07 05:17:25;;;;;;;;;;;;;;;;;;5026606;28;20380;-84
2021/07/07 05:19:51;;;;;;;;;;;;;;;;;;5026303;28;20380;-85
2021/07/07 05:22:16;;;;;;;;;;;;;;;;;;5009924;28;19964;-85
2021/07/07 05:24:41;;;;;;;;;;;;;;;;;;5009812;28;19922;-85
2021/07/07 05:27:07;;;;;;;;;;;;;;;;;;5026305;28;19914;-85
2021/07/07 05:29:32;;;;;;;;;;;;;;;;;;5025416;28;19921;-85
2021/07/07 05:31:59;;;;;;;;;;;;;;;;;;5025576;28;20380;-84
2021/07/07 05:34:24;;;;;;;;;;;;;;;;;;5026077;28;19914;-85
2021/07/07 05:36:49;;;;;;;;;;;;;;;;;;5010023;28;19918;-85
2021/07/07 05:39:14;;;;;;;;;;;;;;;;;;5026743;28;19960;-85
2021/07/07 05:41:39;;;;;;;;;;;;;;;;;;5025921;28;19921;-85
2021/07/07 05:44:05;;;;;;;;;;;;;;;;;;5009925;28;19914;-85
2021/07/07 05:46:30;;;;;;;;;;;;;;;;;;5026032;28;19921;-85
2021/07/07 05:48:55;;;;;;;;;;;;;;;;;;5009987;28;19920;-85
2021/07/07 05:51:20;;;;;;;;;;;;;;;;;;5009641;28;19973;-84
2021/07/07 05:53:46;;;;;;;;;;;;;;;;;;5026411;28;19953;-85
2021/07/07 05:56:11;;;;;;;;;;;;;;;;;;5009635;28;19918;-84
2021/07/07 05:58:36;;;;;;;;;;;;;;;;;;5025021;28;19914;-85
2021/07/07 06:01:02;;;;;;;;;;;;;;;;;;5007603;28;19921;-84
2021/07/07 06:03:27;;;;;;;;;;;;;;;;;;5025346;28;19921;-85
2021/07/07 06:05:52;;;;;;;;;;;;;;;;;;5023807;28;19917;-84
2021/07/07 06:08:17;;;;;;;;;;;;;;;;;;5022688;28;19953;-85
2021/07/07 06:10:45;;;;;;;;;;;;;;;;;;5024421;28;19957;-85
2021/07/07 06:13:11;;;;;;;;;;;;;;;;;;5024248;28;19913;-84
2021/07/07 06:15:37;;;;;;;;;;;;;;;;;;5024577;28;19920;-85
2021/07/07 06:18:02;;;;;;;;;;;;;;;;;;5007355;28;19925;-85
2021/07/07 06:20:27;;;;;;;;;;;;;;;;;;5018337;28;19914;-85
2021/07/07 06:22:53;;;;;;;;;;;;;;;;;;5010791;28;20000;-85
2021/07/07 06:25:18;;;;;;;;;;;;;;;;;;5027353;28;19956;-85
2021/07/07 06:27:43;;;;;;;;;;;;;;;;;;5027587;28;20284;-85
2021/07/07 06:30:09;;;;;;;;;;;;;;;;;;5027005;28;19914;-85
2021/07/07 06:32:35;;;;;;;;;;;;;;;;;;5027246;28;19929;-84
2021/07/07 06:35:01;;;;;;;;;;;;;;;;;;5024846;28;19914;-84
2021/07/07 06:37:27;;;;;;;;;;;;;;;;;;5022181;28;19918;-84
2021/07/07 06:39:52;;;;;;;;;;;;;;;;;;5023989;28;19914;-85
2021/07/07 06:42:17;;;;;;;;;;;;;;;;;;5024397;28;19914;-85
2021/07/07 06:44:42;;;;;;;;;;;;;;;;;;5022672;28;20396;-85
2021/07/07 06:47:08;;;;;;;;;;;;;;;;;;5007526;28;19922;-85
2021/07/07 06:49:33;;;;;;;;;;;;;;;;;;5023139;28;19963;-84
2021/07/07 06:51:58;;;;;;;;;;;;;;;;;;5035583;28;19898;-85
2021/07/07 06:54:23;;;;;;;;;;;;;;;;;;5029103;28;19914;-84
2021/07/07 06:56:48;;;;;;;;;;;;;;;;;;5012516;28;20002;-84
2021/07/07 06:59:14;;;;;;;;;;;;;;;;;;5028134;28;19914;-84
2021/07/07 07:01:39;;;;;;;;;;;;;;;;;;5007644;28;19938;-84
2021/07/07 07:04:04;;;;;;;;;;;;;;;;;;5008394;28;19918;-84
2021/07/07 07:06:29;;;;;;;;;;;;;;;;;;5010396;28;19914;-84
2021/07/07 07:08:55;;;;;;;;;;;;;;;;;;5009594;28;19925;-84
2021/07/07 07:11:20;;;;;;;;;;;;;;;;;;5009816;28;19921;-84
2021/07/07 07:13:45;;;;;;;;;;;;;;;;;;5009710;28;19956;-84
2021/07/07 07:16:11;;;;;;;;;;;;;;;;;;5009480;28;19914;-84
2021/07/07 07:18:36;;;;;;;;;;;;;;;;;;5009793;28;19986;-84
2021/07/07 07:21:01;;;;;;;;;;;;;;;;;;5008715;28;19977;-84
2021/07/07 07:23:26;;;;;;;;;;;;;;;;;;5009171;28;20021;-84
2021/07/07 07:25:51;;;;;;;;;;;;;;;;;;5008545;28;19961;-84
2021/07/07 07:28:17;;;;;;;;;;;;;;;;;;5008974;28;19938;-84
2021/07/07 07:30:42;;;;;;;;;;;;;;;;;;5008613;28;19969;-84
2021/07/07 07:33:07;;;;;;;;;;;;;;;;;;5009046;28;19942;-84
2021/07/07 07:35:33;;;;;;;;;;;;;;;;;;5008446;28;19920;-84
2021/07/07 07:38:07;;;;;;;;;;;;;;;;;;5009014;28;19949;-84
2021/07/07 07:40:35;;;;;;;;;;;;;;;;;;5007484;28;19914;-84
2021/07/07 07:43:01;;;;;;;;;;;;;;;;;;5008225;28;19953;-84
2021/07/07 07:45:26;;;;;;;;;;;;;;;;;;5007655;28;19918;-84
2021/07/07 07:47:51;;;;;;;;;;;;;;;;;;5009000;28;19898;-84
2021/07/07 07:50:17;;;;;;;;;;;;;;;;;;5008074;28;19918;-84
2021/07/07 07:52:43;;;;;;;;;;;;;;;;;;5007540;28;19914;-84
2021/07/07 07:55:08;;;;;;;;;;;;;;;;;;5007593;28;19948;-84
2021/07/07 07:57:36;;;;;;;;;;;;;;;;;;5008185;28;19938;-84
2021/07/07 08:00:11;;;;;;;;;;;;;;;;;;5008265;28;20013;-84
2021/07/07 08:02:36;;;;;;;;;;;;;;;;;;5008360;28;19953;-84
2021/07/07 08:05:01;;;;;;;;;;;;;;;;;;5008675;28;19918;-84
2021/07/07 08:07:28;;;;;;;;;;;;;;;;;;4991822;28;20372;-84
2021/07/07 08:09:53;;;;;;;;;;;;;;;;;;5008418;28;19969;-84
2021/07/07 08:12:19;;;;;;;;;;;;;;;;;;5007403;28;19957;-84
2021/07/07 08:14:44;;;;;;;;;;;;;;;;;;5010605;28;19953;-84
2021/07/07 08:17:09;;;;;;;;;;;;;;;;;;5010981;28;20365;-84
2021/07/07 08:19:34;;;;;;;;;;;;;;;;;;5027079;28;19956;-84
2021/07/07 08:22:00;;;;;;;;;;;;;;;;;;5028355;28;19914;-84
2021/07/07 08:24:25;;;;;;;;;;;;;;;;;;5011383;28;19925;-84
2021/07/07 08:26:50;;;;;;;;;;;;;;;;;;5004037;28;19941;-85
2021/07/07 08:29:15;;;;;;;;;;;;;;;;;;5015302;28;19989;-85
2021/07/07 08:31:40;;;;;;;;;;;;;;;;;;5014695;28;19926;-85
2021/07/07 08:34:06;;;;;;;;;;;;;;;;;;5014309;28;19953;-85
2021/07/07 08:36:31;;;;;;;;;;;;;;;;;;5013565;28;19920;-85
2021/07/07 08:38:56;;;;;;;;;;;;;;;;;;5030998;28;19996;-85
2021/07/07 08:41:21;;;;;;;;;;;;;;;;;;5030419;28;19914;-85
2021/07/07 08:43:47;;;;;;;;;;;;;;;;;;5029511;28;19977;-85
2021/07/07 08:46:12;;;;;;;;;;;;;;;;;;5029915;28;19940;-85
2021/07/07 08:48:37;;;;;;;;;;;;;;;;;;5013304;28;19913;-85
2021/07/07 08:51:03;;;;;;;;;;;;;;;;;;5031027;28;19917;-85
2021/07/07 08:53:29;;;;;;;;;;;;;;;;;;5013771;28;19998;-85
2021/07/07 08:55:54;;;;;;;;;;;;;;;;;;5030664;28;19976;-85
2021/07/07 08:58:20;;;;;;;;;;;;;;;;;;5015209;28;19920;-85
2021/07/07 09:00:45;;;;;;;;;;;;;;;;;;5013680;28;20005;-85
2021/07/07 09:03:11;;;;;;;;;;;;;;;;;;5030531;28;19936;-85
2021/07/07 09:05:56;;;;;;;;;;;;;;;;;;5015180;28;19917;-85
2021/07/07 09:08:31;;;;;;;;;;;;;;;;;;5030137;28;19920;-85
2021/07/07 09:10:57;;;;;;;;;;;;;;;;;;5030092;28;19914;-85
2021/07/07 09:13:23;;;;;;;;;;;;;;;;;;5030365;28;19914;-85
2021/07/07 09:15:48;;;;;;;;;;;;;;;;;;5030338;28;19914;-85
2021/07/07 09:18:17;;;;;;;;;;;;;;;;;;5029298;28;19921;-85
2021/07/07 09:20:42;;;;;;;;;;;;;;;;;;5029621;28;19921;-85
2021/07/07 09:23:14;;;;;;;;;;;;;;;;;;5029384;28;19918;-85
2021/07/07 09:25:49;;;;;;;;;;;;;;;;;;5014894;28;19922;-85
2021/07/07 09:28:15;;;;;;;;;;;;;;;;;;5029855;28;19917;-85
2021/07/07 09:30:40;;;;;;;;;;;;;;;;;;5013486;28;19940;-85
2021/07/07 09:33:06;;;;;;;;;;;;;;;;;;5028447;28;19925;-85
2021/07/07 09:35:31;;;;;;;;;;;;;;;;;;5015683;28;19914;-87
2021/07/07 09:37:57;;;;;;;;;;;;;;;;;;5006683;28;19973;-86
2021/07/07 09:40:23;;;;;;;;;;;;;;;;;;5007601;28;20071;-86
2021/07/07 09:42:48;;;;;;;;;;;;;;;;;;5009013;28;20059;-86
2021/07/07 09:45:15;;;;;;;;;;;;;;;;;;5010504;28;19921;-86
2021/07/07 09:47:41;;;;;;;;;;;;;;;;;;5010850;28;19914;-86
2021/07/07 09:50:06;;;;;;;;;;;;;;;;;;5012188;28;19940;-86
2021/07/07 09:52:32;;;;;;;;;;;;;;;;;;5011396;28;20392;-86
2021/07/07 09:54:57;;;;;;;;;;;;;;;;;;5012578;28;19929;-86
2021/07/07 09:57:22;;;;;;;;;;;;;;;;;;5012227;28;19918;-86
2021/07/07 09:59:48;;;;;;;;;;;;;;;;;;5024574;28;19952;-85
2021/07/07 10:02:13;;;;;;;;;;;;;;;;;;5028763;28;19918;-85
2021/07/07 10:04:40;;;;;;;;;;;;;;;;;;5028456;28;19918;-85
2021/07/07 10:07:06;;;;;;;;;;;;;;;;;;5028436;28;19925;-85
2021/07/07 10:09:31;;;;;;;;;;;;;;;;;;5028968;28;20377;-85
2021/07/07 10:11:57;;;;;;;;;;;;;;;;;;5027890;28;19913;-90
2021/07/07 10:14:22;;;;;;;;;;;;;;;;;;5023507;28;19918;-87
2021/07/07 10:16:48;;;;;;;;;;;;;;;;;;5025073;28;19918;-85
2021/07/07 10:19:14;;;;;;;;;;;;;;;;;;5017190;28;20381;-87
2021/07/07 10:21:39;;;;;;;;;;;;;;;;;;5017800;28;20340;-87
2021/07/07 10:24:04;;;;;;;;;;;;;;;;;;4997177;28;19973;-87
2021/07/07 10:26:30;;;;;;;;;;;;;;;;;;4995782;28;20008;-85
2021/07/07 10:28:55;;;;;;;;;;;;;;;;;;5012561;28;19968;-86
2021/07/07 10:31:21;;;;;;;;;;;;;;;;;;5014415;28;19973;-85
2021/07/07 10:33:47;;;;;;;;;;;;;;;;;;5025041;28;19933;-85
2021/07/07 10:36:12;;;;;;;;;;;;;;;;;;5023925;28;19990;-85
2021/07/07 10:38:37;;;;;;;;;;;;;;;;;;5024156;28;20557;-85
2021/07/07 10:41:02;;;;;;;;;;;;;;;;;;5025735;28;19924;-85
2021/07/07 10:43:44;;;;;;;;;;;;;;;;;;5026187;28;19925;-85
2021/07/07 10:46:09;;;;;;;;;;;;;;;;;;5029829;28;19918;-85
2021/07/07 10:48:34;;;;;;;;;;;;;;;;;;5030730;28;20400;-86
2021/07/07 10:51:00;;;;;;;;;;;;;;;;;;5031470;28;19972;-85
2021/07/07 10:53:33;;;;;;;;;;;;;;;;;;5030500;28;20385;-85
2021/07/07 10:55:59;;;;;;;;;;;;;;;;;;5029155;28;19925;-85
2021/07/07 10:58:28;;;;;;;;;;;;;;;;;;5030894;28;19914;-85
2021/07/07 11:00:53;;;;;;;;;;;;;;;;;;5030741;28;19921;-85
2021/07/07 11:03:31;;;;;;;;;;;;;;;;;;5031400;28;19918;-85
2021/07/07 11:05:56;;;;;;;;;;;;;;;;;;5031535;28;19961;-85
2021/07/07 11:08:22;;;;;;;;;;;;;;;;;;5031886;28;19921;-85
2021/07/07 11:10:54;;;;;;;;;;;;;;;;;;5031545;28;19937;-85
2021/07/07 11:13:19;;;;;;;;;;;;;;;;;;5013483;28;20924;-85
2021/07/07 11:15:46;;;;;;;;;;;;;;;;;;5026587;28;19957;-84
2021/07/07 11:18:18;;;;;;;;;;;;;;;;;;5029157;28;19918;-86
2021/07/07 11:20:44;;;;;;;;;;;;;;;;;;5031758;28;19914;-85
2021/07/07 11:23:10;;;;;;;;;;;;;;;;;;5029295;28;19918;-85
2021/07/07 11:25:36;;;;;;;;;;;;;;;;;;5007251;28;19972;-85
2021/07/07 11:28:02;;;;;;;;;;;;;;;;;;5034207;23;20020;-77
2021/07/07 11:30:28;;;;;;;;;;;;;;;;;;5003208;28;19957;-79
2021/07/07 11:33:04;;;;;;;;;;;;;;;;;;4992889;28;19960;-79
2021/07/07 11:35:31;;;;;;;;;;;;;;;;;;5009684;28;20394;-79
2021/07/07 11:38:00;;;;;;;;;;;;;;;;;;4996541;28;19914;-79
2021/07/07 11:40:25;;;;;;;;;;;;;;;;;;4995972;28;20020;-79
2021/07/07 11:42:53;;;;;;;;;;;;;;;;;;4995923;28;19972;-79
2021/07/07 11:45:22;;;;;;;;;;;;;;;;;;5013622;28;20012;-79
2021/07/07 11:47:58;;;;;;;;;;;;;;;;;;5009984;28;19993;-79
2021/07/07 11:50:25;;;;;;;;;;;;;;;;;;5028430;28;20498;-79
2021/07/07 11:53:00;;;;;;;;;;;;;;;;;;5027728;28;20376;-78
2021/07/07 11:55:41;;;;;;;;;;;;;;;;;;5028731;28;19913;-79
2021/07/07 11:58:06;;;;;;;;;;;;;;;;;;5001668;28;19918;-78
2021/07/07 12:00:38;;;;;;;;;;;;;;;;;;4992112;28;19921;-79
2021/07/07 12:03:03;;;;;;;;;;;;;;;;;;5008061;28;19944;-79
2021/07/07 12:05:28;;;;;;;;;;;;;;;;;;4998467;28;20376;-79
2021/07/07 12:08:11;;;;;;;;;;;;;;;;;;5000097;28;19979;-79
2021/07/07 12:10:36;;;;;;;;;;;;;;;;;;5030000;28;19917;-77
2021/07/07 12:13:17;;;;;;;;;;;;;;;;;;5014016;28;20021;-78
2021/07/07 12:15:42;;;;;;;;;;;;;;;;;;5014330;28;19921;-78
2021/07/07 12:18:08;;;;;;;;;;;;;;;;;;5029049;28;19917;-78
2021/07/07 12:20:33;;;;;;;;;;;;;;;;;;5029569;28;20295;-78
2021/07/07 12:23:02;;;;;;;;;;;;;;;;;;5025678;28;19924;-78
2021/07/07 12:25:27;;;;;;;;;;;;;;;;;;5008753;28;20415;-78
2021/07/07 12:27:52;;;;;;;;;;;;;;;;;;5015755;28;19921;-78
2021/07/07 12:30:17;;;;;;;;;;;;;;;;;;4997006;28;19917;-78
2021/07/07 12:32:43;;;;;;;;;;;;;;;;;;5005469;28;19956;-78
2021/07/07 12:35:08;;;;;;;;;;;;;;;;;;5025896;28;19918;-79
2021/07/07 12:37:35;;;;;;;;;;;;;;;;;;5029954;28;20269;-79
2021/07/07 12:40:03;;;;;;;;;;;;;;;;;;5017195;28;19918;-78
2021/07/07 12:42:35;;;;;;;;;;;;;;;;;;4997589;28;19920;-78
2021/07/07 12:45:04;;;;;;;;;;;;;;;;;;5004095;28;20019;-78
2021/07/07 12:47:29;;;;;;;;;;;;;;;;;;5028457;28;19917;-78
2021/07/07 12:49:55;;;;;;;;;;;;;;;;;;4996229;28;19913;-78
2021/07/07 12:52:35;;;;;;;;;;;;;;;;;;5021732;28;20397;-78
2021/07/07 12:55:08;;;;;;;;;;;;;;;;;;4996780;28;19914;-78
2021/07/07 12:57:49;;;;;;;;;;;;;;;;;;4996302;28;19917;-78
2021/07/07 13:00:19;;;;;;;;;;;;;;;;;;4996458;28;19913;-78
2021/07/07 13:02:48;;;;;;;;;;;;;;;;;;5003644;28;19917;-78
2021/07/07 13:05:13;;;;;;;;;;;;;;;;;;5021516;28;19926;-78
2021/07/07 13:07:38;;;;;;;;;;;;;;;;;;5013813;28;19913;-78
2021/07/07 13:10:04;;;;;;;;;;;;;;;;;;5012682;28;19921;-78
2021/07/07 13:12:29;;;;;;;;;;;;;;;;;;4981031;28;19941;-78
2021/07/07 13:14:55;;;;;;;;;;;;;;;;;;5029309;28;19961;-78
2021/07/07 13:17:21;;;;;;;;;;;;;;;;;;5029101;28;19920;-78
2021/07/07 13:19:49;;;;;;;;;;;;;;;;;;5020323;28;20012;-78
2021/07/07 13:22:15;;;;;;;;;;;;;;;;;;4998255;28;20440;-78
2021/07/07 13:24:40;;;;;;;;;;;;;;;;;;4983761;28;20036;-78
2021/07/07 13:27:05;;;;;;;;;;;;;;;;;;5027286;28;19918;-78
2021/07/07 13:29:51;;;;;;;;;;;;;;;;;;5006504;28;19965;-78
2021/07/07 13:32:20;;;;;;;;;;;;;;;;;;4993037;28;19928;-78
2021/07/07 13:34:49;;;;;;;;;;;;;;;;;;5013290;28;19940;-78
2021/07/07 13:37:17;;;;;;;;;;;;;;;;;;5021657;28;19925;-78
2021/07/07 13:39:49;;;;;;;;;;;;;;;;;;5017610;28;19913;-78
2021/07/07 13:42:14;;;;;;;;;;;;;;;;;;5007815;28;19924;-78
2021/07/07 13:44:40;;;;;;;;;;;;;;;;;;5000557;28;19976;-78
2021/07/07 13:47:05;;;;;;;;;;;;;;;;;;5015896;28;19921;-78
2021/07/07 13:49:31;;;;;;;;;;;;;;;;;;5011142;28;19967;-78
2021/07/07 13:51:56;;;;;;;;;;;;;;;;;;5031796;28;19979;-78
2021/07/07 13:54:21;;;;;;;;;;;;;;;;;;5016960;28;19914;-78
2021/07/07 13:56:46;;;;;;;;;;;;;;;;;;5016392;28;20012;-78
2021/07/07 13:59:11;;;;;;;;;;;;;;;;;;5001503;28;19956;-79
2021/07/07 14:01:38;;;;;;;;;;;;;;;;;;5012023;28;19924;-78
2021/07/07 14:04:03;;;;;;;;;;;;;;;;;;5008291;28;19928;-78
2021/07/07 14:06:28;;;;;;;;;;;;;;;;;;5032311;28;19917;-78
2021/07/07 14:08:53;;;;;;;;;;;;;;;;;;5032329;28;19914;-78
2021/07/07 14:11:19;;;;;;;;;;;;;;;;;;5003546;28;19925;-78
2021/07/07 14:13:44;;;;;;;;;;;;;;;;;;5008248;28;19925;-78
2021/07/07 14:16:09;;;;;;;;;;;;;;;;;;4999406;28;20415;-78
2021/07/07 14:18:34;;;;;;;;;;;;;;;;;;4999290;28;20372;-78
2021/07/07 14:21:00;;;;;;;;;;;;;;;;;;5002278;28;19917;-78
2021/07/07 14:23:25;;;;;;;;;;;;;;;;;;5015058;28;19918;-78
2021/07/07 14:25:50;;;;;;;;;;;;;;;;;;4998978;28;19972;-78
2021/07/07 14:28:15;;;;;;;;;;;;;;;;;;4998436;28;19925;-78
2021/07/07 14:30:40;;;;;;;;;;;;;;;;;;5002538;28;19918;-78
2021/07/07 14:33:06;;;;;;;;;;;;;;;;;;5031223;28;20360;-78
2021/07/07 14:35:31;;;;;;;;;;;;;;;;;;5031640;28;19913;-78
2021/07/07 14:37:56;;;;;;;;;;;;;;;;;;5031652;28;19920;-78
2021/07/07 14:40:21;;;;;;;;;;;;;;;;;;5026863;28;19940;-78
2021/07/07 14:42:46;;;;;;;;;;;;;;;;;;4998508;28;20292;-77
2021/07/07 14:45:12;;;;;;;;;;;;;;;;;;4999048;28;20420;-78
2021/07/07 14:47:37;;;;;;;;;;;;;;;;;;4998552;28;19977;-78
2021/07/07 14:50:02;;;;;;;;;;;;;;;;;;5024117;28;19928;-77
2021/07/07 14:52:28;;;;;;;;;;;;;;;;;;5031128;28;19957;-77
2021/07/07 14:54:53;;;;;;;;;;;;;;;;;;5019609;28;19920;-77
2021/07/07 14:57:18;;;;;;;;;;;;;;;;;;4998151;28;19914;-78
2021/07/07 14:59:43;;;;;;;;;;;;;;;;;;5015856;28;19963;-78
2021/07/07 15:02:08;;;;;;;;;;;;;;;;;;4998161;28;19913;-77
2021/07/07 15:04:34;;;;;;;;;;;;;;;;;;5014469;28;19919;-77
2021/07/07 15:06:59;;;;;;;;;;;;;;;;;;5014525;28;19920;-77
2021/07/07 15:09:24;;;;;;;;;;;;;;;;;;5014334;28;19925;-78
2021/07/07 15:11:49;;;;;;;;;;;;;;;;;;5014549;28;20398;-77
2021/07/07 15:14:14;;;;;;;;;;;;;;;;;;5014315;28;19980;-77
2021/07/07 15:16:40;;;;;;;;;;;;;;;;;;5014257;28;20372;-77
2021/07/07 15:19:05;;;;;;;;;;;;;;;;;;4997684;28;19967;-77
2021/07/07 15:21:30;;;;;;;;;;;;;;;;;;5014166;28;20338;-78
2021/07/07 15:23:55;;;;;;;;;;;;;;;;;;5014274;28;19918;-77
2021/07/07 15:26:21;;;;;;;;;;;;;;;;;;5015172;28;19925;-77
2021/07/07 15:28:48;;;;;;;;;;;;;;;;;;5013802;28;19940;-77
2021/07/07 15:31:13;;;;;;;;;;;;;;;;;;5014188;28;19917;-77
2021/07/07 15:33:39;;;;;;;;;;;;;;;;;;5014379;28;19914;-78
2021/07/07 15:36:04;;;;;;;;;;;;;;;;;;5013928;28;20011;-77
2021/07/07 15:38:32;;;;;;;;;;;;;;;;;;4997330;28;20376;-77
2021/07/07 15:40:58;;;;;;;;;;;;;;;;;;5013838;28;19915;-77
2021/07/07 15:43:23;;;;;;;;;;;;;;;;;;5014736;28;20363;-77
2021/07/07 15:45:48;;;;;;;;;;;;;;;;;;5015266;28;19918;-77
2021/07/07 15:48:13;;;;;;;;;;;;;;;;;;4997191;28;19921;-77
2021/07/07 15:50:40;;;;;;;;;;;;;;;;;;5020472;28;20406;-77
2021/07/07 15:53:06;;;;;;;;;;;;;;;;;;5029736;28;19964;-77
2021/07/07 15:55:31;;;;;;;;;;;;;;;;;;5027835;28;19921;-77
2021/07/07 15:57:56;;;;;;;;;;;;;;;;;;5011513;28;20420;-78
2021/07/07 16:00:21;;;;;;;;;;;;;;;;;;5012327;28;19944;-77
2021/07/07 16:02:47;;;;;;;;;;;;;;;;;;5012955;28;19913;-78
2021/07/07 16:05:13;;;;;;;;;;;;;;;;;;5011778;28;19932;-77
2021/07/07 16:07:38;;;;;;;;;;;;;;;;;;4995165;28;20264;-79
2021/07/07 16:10:04;;;;;;;;;;;;;;;;;;5012658;28;19920;-77
2021/07/07 16:12:29;;;;;;;;;;;;;;;;;;4984523;28;19971;-77
2021/07/07 16:14:54;;;;;;;;;;;;;;;;;;5007860;28;19918;-77
2021/07/07 16:17:20;;;;;;;;;;;;;;;;;;5012430;28;20373;-77
2021/07/07 16:19:45;;;;;;;;;;;;;;;;;;5027457;28;19945;-78
2021/07/07 16:22:10;;;;;;;;;;;;;;;;;;5026218;28;19921;-78
2021/07/07 16:24:35;;;;;;;;;;;;;;;;;;4994850;28;19917;-78
2021/07/07 16:27:00;;;;;;;;;;;;;;;;;;5012354;28;20745;-78
2021/07/07 16:29:26;;;;;;;;;;;;;;;;;;5027260;28;19925;-77
2021/07/07 16:31:51;;;;;;;;;;;;;;;;;;4994617;28;20384;-78
2021/07/07 16:34:17;;;;;;;;;;;;;;;;;;4994344;28;20007;-78
2021/07/07 16:36:42;;;;;;;;;;;;;;;;;;5007332;28;19917;-78
2021/07/07 16:39:07;;;;;;;;;;;;;;;;;;5010166;28;19921;-77
2021/07/07 16:41:33;;;;;;;;;;;;;;;;;;4978340;28;19969;-78